Time;durP1;ratioP1;P1;durP2;ratioP2;P2;SDS_P1;SDS_P2;PMS_P1;PMS_P2;Temp;Humidity;BMP_temperature;BMP_pressure;BME280_temperature;BME280_humidity;BME280_pressure;Samples;Min_cycle;Max_cycle;Signal;HPM_P1;HPM_P2
2023/04/11 00:01:48;;;;;;;5.07;3.70;;;;;;;19.16;44.17;101542.66;5034397;28;20403;-47
2023/04/11 00:04:19;;;;;;;4.78;3.50;;;;;;;19.15;43.97;101532.91;5034679;28;20049;-48
2023/04/11 00:06:47;;;;;;;6.00;3.60;;;;;;;19.15;44.19;101531.06;5033294;28;20041;-49
2023/04/11 00:09:15;;;;;;;3.92;3.20;;;;;;;19.14;44.07;101526.69;5034364;28;20048;-47
2023/04/11 00:11:43;;;;;;;4.53;3.33;;;;;;;19.14;44.01;101517.78;5043065;28;20411;-50
2023/04/11 00:14:11;;;;;;;6.25;3.72;;;;;;;19.14;44.10;101510.59;5054226;28;20052;-47
2023/04/11 00:16:40;;;;;;;5.32;3.55;;;;;;;19.14;43.94;101513.25;5054154;28;20056;-51
2023/04/11 00:19:08;;;;;;;5.50;3.05;;;;;;;19.14;43.95;101507.91;5054114;28;20075;-48
2023/04/11 00:21:38;;;;;;;3.67;2.50;;;;;;;19.14;43.98;101501.69;5054315;28;20045;-48
2023/04/11 00:24:07;;;;;;;3.97;3.03;;;;;;;19.14;43.98;101490.94;5053929;28;20056;-46
2023/04/11 00:26:34;;;;;;;5.70;3.20;;;;;;;19.13;43.97;101490.09;5053801;28;20056;-48
2023/04/11 00:29:02;;;;;;;6.22;3.80;;;;;;;19.13;43.99;101483.88;5053837;28;20072;-49
2023/04/11 00:31:29;;;;;;;5.63;3.10;;;;;;;19.13;44.01;101478.50;5053196;28;20056;-49
2023/04/11 00:33:57;;;;;;;5.25;3.78;;;;;;;19.13;43.97;101481.19;5052608;28;20049;-47
2023/04/11 00:36:25;;;;;;;5.72;2.97;;;;;;;19.13;43.81;101484.72;5053697;28;20049;-46
2023/04/11 00:38:53;;;;;;;5.20;2.88;;;;;;;19.13;44.00;101467.75;5053697;28;20047;-46
2023/04/11 00:41:21;;;;;;;4.15;3.08;;;;;;;19.12;43.71;101469.59;5053956;28;20048;-45
2023/04/11 00:43:49;;;;;;;5.53;3.17;;;;;;;19.11;43.90;101475.91;5046792;28;20395;-46
2023/04/11 00:46:17;;;;;;;4.45;3.30;;;;;;;19.11;44.12;101475.91;5033088;28;20053;-45
2023/04/11 00:48:45;;;;;;;5.20;3.28;;;;;;;19.11;43.86;101478.59;5033941;28;20049;-45
2023/04/11 00:51:14;;;;;;;6.40;3.30;;;;;;;19.12;43.71;101476.75;5032299;28;20061;-45
2023/04/11 00:53:42;;;;;;;4.03;2.92;;;;;;;19.11;43.78;101477.75;5033525;28;20064;-44
2023/04/11 00:56:10;;;;;;;4.40;2.85;;;;;;;19.10;43.88;101468.84;5033700;28;20380;-45
2023/04/11 00:58:38;;;;;;;6.28;3.15;;;;;;;19.10;43.69;101476.88;5033812;28;20038;-45
2023/04/11 01:01:09;;;;;;;4.57;2.92;;;;;;;19.10;43.77;101474.19;5033941;28;20060;-45
2023/04/11 01:03:38;;;;;;;4.30;3.03;;;;;;;19.10;43.89;101468.00;5031764;28;20052;-44
2023/04/11 01:06:08;;;;;;;4.47;2.92;;;;;;;19.11;43.90;101472.38;5032701;28;20496;-46
2023/04/11 01:08:37;;;;;;;4.10;2.58;;;;;;;19.10;43.78;101471.53;5033315;28;20411;-48
2023/04/11 01:11:05;;;;;;;4.32;3.55;;;;;;;19.10;43.71;101454.56;5033316;28;20399;-46
2023/04/11 01:13:34;;;;;;;5.65;2.70;;;;;;;19.10;43.90;101468.00;5033702;28;20046;-48
2023/04/11 01:16:02;;;;;;;4.30;2.72;;;;;;;19.10;43.75;101463.47;5033197;28;20056;-44
2023/04/11 01:18:30;;;;;;;4.28;2.78;;;;;;;19.10;43.61;101455.41;5032608;28;20037;-45
2023/04/11 01:20:59;;;;;;;3.97;2.95;;;;;;;19.08;43.79;101449.31;5033509;28;20053;-47
2023/04/11 01:23:27;;;;;;;4.57;2.97;;;;;;;19.09;43.67;101447.50;5031574;28;20419;-49
2023/04/11 01:25:54;;;;;;;4.45;2.50;;;;;;;19.09;43.77;101451.03;5040404;28;20060;-48
2023/04/11 01:28:22;;;;;;;4.32;2.67;;;;;;;19.08;43.77;101441.28;5051882;28;20044;-47
2023/04/11 01:30:50;;;;;;;6.18;3.28;;;;;;;19.09;43.87;101445.66;5051812;28;20053;-47
2023/04/11 01:33:18;;;;;;;5.65;3.15;;;;;;;19.08;43.80;101441.28;5053369;28;20041;-48
2023/04/11 01:35:45;;;;;;;3.83;2.72;;;;;;;19.08;43.60;101443.97;5052336;28;20454;-48
2023/04/11 01:38:13;;;;;;;4.25;2.88;;;;;;;19.08;43.72;101441.28;5052817;28;20045;-46
2023/04/11 01:40:40;;;;;;;4.05;2.60;;;;;;;19.08;43.83;101438.59;5051780;28;20057;-48
2023/04/11 01:43:08;;;;;;;5.35;3.10;;;;;;;19.08;43.74;101430.53;5051188;28;20048;-48
2023/04/11 01:45:36;;;;;;;4.53;2.63;;;;;;;19.08;43.76;101424.28;5039007;28;20068;-47
2023/04/11 01:48:07;;;;;;;3.80;2.95;;;;;;;19.07;43.74;101428.81;5032483;28;20034;-48
2023/04/11 01:50:35;;;;;;;4.00;2.95;;;;;;;19.08;43.61;101426.97;5031955;28;20049;-51
2023/04/11 01:53:02;;;;;;;4.22;2.75;;;;;;;19.08;43.67;101418.94;5032754;28;20052;-46
2023/04/11 01:55:30;;;;;;;5.20;3.13;;;;;;;19.07;43.72;101425.28;5031640;28;20057;-49
2023/04/11 01:57:57;;;;;;;3.95;2.72;;;;;;;19.07;43.72;101418.06;5031335;28;20052;-49
2023/04/11 02:00:24;;;;;;;5.00;3.10;;;;;;;19.05;43.56;101411.97;5031779;28;20061;-48
2023/04/11 02:02:52;;;;;;;4.15;2.65;;;;;;;19.07;43.80;101417.22;5032708;28;20396;-47
2023/04/11 02:05:21;;;;;;;4.32;3.10;;;;;;;19.07;43.56;101412.69;5032741;28;20041;-45
2023/04/11 02:07:48;;;;;;;3.85;2.65;;;;;;;19.06;43.70;101402.09;5031353;28;20385;-46
2023/04/11 02:10:17;;;;;;;3.95;2.95;;;;;;;19.06;43.70;101391.38;5030787;28;20050;-46
2023/04/11 02:12:44;;;;;;;3.92;2.40;;;;;;;19.05;43.66;101377.09;5042244;28;20387;-49
2023/04/11 02:15:12;;;;;;;3.90;2.92;;;;;;;19.04;43.74;101370.03;5052819;28;20045;-45
2023/04/11 02:17:44;;;;;;;4.50;2.65;;;;;;;19.05;43.55;101358.31;5050993;28;20049;-47
2023/04/11 02:20:12;;;;;;;3.17;2.33;;;;;;;19.06;43.66;101348.44;5052552;28;20048;-48
2023/04/11 02:22:40;;;;;;;4.20;2.25;;;;;;;19.04;43.66;101324.41;5051739;28;20053;-49
2023/04/11 02:25:08;;;;;;;4.13;2.88;;;;;;;19.03;43.56;101307.41;5052435;28;20060;-45
2023/04/11 02:27:35;;;;;;;4.13;2.50;;;;;;;19.04;43.57;101319.03;5052740;28;20052;-45
2023/04/11 02:30:04;;;;;;;4.22;2.65;;;;;;;19.04;43.53;101329.78;5051565;28;20060;-50
2023/04/11 02:32:38;;;;;;;3.25;2.42;;;;;;;19.03;43.71;101323.53;5055963;28;20045;-47
2023/04/11 02:35:07;;;;;;;4.85;2.65;;;;;;;19.03;43.66;101333.41;5056310;28;20395;-45
2023/04/11 02:37:34;;;;;;;3.75;2.28;;;;;;;19.03;43.65;101349.50;5054871;28;20059;-47
2023/04/11 02:40:03;;;;;;;3.95;2.72;;;;;;;19.04;43.79;101356.59;5055828;28;20060;-44
2023/04/11 02:42:31;;;;;;;4.00;2.47;;;;;;;19.02;43.73;101355.84;5055835;28;20053;-45
2023/04/11 02:44:58;;;;;;;3.22;2.40;;;;;;;19.02;43.71;101348.66;5056220;28;20053;-46
2023/04/11 02:47:28;;;;;;;3.58;2.30;;;;;;;19.03;43.66;101350.34;5033489;28;20048;-48
2023/04/11 02:50:03;;;;;;;4.63;2.67;;;;;;;19.03;43.72;101355.72;5034806;28;20042;-44
2023/04/11 02:52:40;;;;;;;3.45;2.20;;;;;;;19.03;43.72;101360.25;5034580;28;20429;-46
2023/04/11 02:55:09;;;;;;;;;;;;;;;19.01;43.45;101357.69;5035429;28;20061;-45
2023/04/11 02:57:37;;;;;;;5.60;2.47;;;;;;;19.03;43.73;101352.19;5034309;28;19921;-45
2023/04/11 03:00:08;;;;;;;4.00;2.40;;;;;;;19.03;44.00;101349.50;5034538;28;20049;-44
2023/04/11 03:02:44;;;;;;;3.20;2.20;;;;;;;19.02;44.11;101345.97;5034079;28;20064;-44
2023/04/11 03:05:13;;;;;;;3.65;2.55;;;;;;;19.03;44.37;101341.47;5034295;28;20053;-50
2023/04/11 03:07:45;;;;;;;4.70;2.30;;;;;;;19.03;44.33;101339.63;5034473;28;20064;-50
2023/04/11 03:10:13;;;;;;;3.33;2.20;;;;;;;19.02;44.25;101343.28;5033922;28;20045;-47
2023/04/11 03:12:40;;;;;;;2.97;2.25;;;;;;;19.02;44.31;101331.69;5035172;28;20042;-48
2023/04/11 03:15:14;;;;;;;4.25;2.45;;;;;;;19.01;44.15;101322.81;5034385;28;20053;-48
2023/04/11 03:17:41;;;;;;;5.40;2.60;;;;;;;19.03;44.24;101328.88;5034776;28;20053;-51
2023/04/11 03:20:12;;;;;;;3.80;2.60;;;;;;;19.02;44.07;101335.25;5033681;28;20049;-50
2023/04/11 03:22:45;;;;;;;3.65;2.45;;;;;;;19.02;44.06;101334.38;5034071;28;20054;-47
2023/04/11 03:25:13;;;;;;;3.53;2.45;;;;;;;19.01;44.13;101330.00;5034473;28;20431;-47
2023/04/11 03:27:41;;;;;;;3.50;2.63;;;;;;;19.01;44.09;101325.50;5054051;28;20049;-44
2023/04/11 03:30:12;;;;;;;3.15;1.95;;;;;;;19.01;44.21;101322.81;5053915;28;20053;-47
2023/04/11 03:32:42;;;;;;;4.15;2.85;;;;;;;19.01;44.03;101319.28;5055292;28;20471;-45
2023/04/11 03:35:09;;;;;;;3.63;2.30;;;;;;;19.02;44.07;101334.38;5054969;28;20053;-48
2023/04/11 03:37:40;;;;;;;3.42;2.50;;;;;;;19.02;43.97;101334.38;5054290;28;20091;-49
2023/04/11 03:40:08;;;;;;;3.67;2.60;;;;;;;19.01;44.01;101328.16;5053395;28;20068;-50
2023/04/11 03:42:39;;;;;;;4.05;2.10;;;;;;;19.01;43.98;101324.63;5052989;28;20415;-48
2023/04/11 03:45:10;;;;;;;4.28;2.67;;;;;;;19.00;43.92;101329.16;5053648;28;20056;-46
2023/04/11 03:47:39;;;;;;;3.67;2.55;;;;;;;19.00;44.00;101328.31;5039664;28;20052;-49
2023/04/11 03:50:07;;;;;;;3.60;2.05;;;;;;;19.00;44.17;101322.94;5033214;28;20045;-44
2023/04/11 03:52:41;;;;;;;5.47;2.38;;;;;;;19.00;44.23;101321.09;5034758;28;20508;-44
2023/04/11 03:55:12;;;;;;;3.33;2.22;;;;;;;19.00;43.93;101315.72;5033737;28;20049;-46
2023/04/11 03:57:39;;;;;;;3.10;2.17;;;;;;;18.99;44.25;101316.69;5033260;28;20499;-46
2023/04/11 04:00:08;;;;;;;4.28;2.38;;;;;;;19.00;43.98;101317.56;5033112;28;20431;-45
2023/04/11 04:02:48;;;;;;;3.60;2.35;;;;;;;18.99;44.09;101315.84;5033256;28;20419;-45
2023/04/11 04:05:16;;;;;;;4.30;2.90;;;;;;;18.98;43.92;101312.28;5034881;28;20396;-48
2023/04/11 04:07:44;;;;;;;4.45;2.05;;;;;;;18.99;44.11;101299.72;5034335;28;20046;-48
2023/04/11 04:10:20;;;;;;;5.25;2.45;;;;;;;18.98;44.08;101298.88;5033491;28;20500;-44
2023/04/11 04:12:52;;;;;;;4.63;2.03;;;;;;;18.98;43.99;101290.84;5037851;28;20502;-45
2023/04/11 04:15:23;;;;;;;2.63;1.92;;;;;;;18.98;44.02;101281.94;5053003;28;20053;-48
2023/04/11 04:17:51;;;;;;;2.78;1.73;;;;;;;18.98;43.93;101276.56;5052861;28;20048;-52
2023/04/11 04:20:26;;;;;;;3.85;2.20;;;;;;;18.98;43.90;101287.28;5052812;28;20055;-52
2023/04/11 04:22:58;;;;;;;2.83;1.75;;;;;;;18.98;43.95;101281.94;5052424;28;20053;-49
2023/04/11 04:25:41;;;;;;;4.28;2.03;;;;;;;18.98;43.98;101289.97;5052100;28;20049;-44
2023/04/11 04:28:09;;;;;;;3.15;2.38;;;;;;;18.98;44.04;101281.94;5052941;28;20060;-45
2023/04/11 04:30:39;;;;;;;3.65;2.17;;;;;;;18.97;44.09;101286.44;5052494;28;20045;-45
2023/04/11 04:33:11;;;;;;;3.83;2.20;;;;;;;18.97;43.99;101283.75;5052594;28;20053;-46
2023/04/11 04:35:42;;;;;;;3.28;2.10;;;;;;;18.97;44.16;101299.88;5052563;28;20057;-45
2023/04/11 04:38:16;;;;;;;5.20;2.63;;;;;;;18.97;44.15;101305.22;5053724;28;20044;-45
2023/04/11 04:40:53;;;;;;;4.65;2.20;;;;;;;18.97;44.53;101307.91;5054065;28;20045;-46
2023/04/11 04:43:23;;;;;;;3.58;2.15;;;;;;;18.97;44.53;101305.22;5052437;28;20075;-45
2023/04/11 04:46:11;;;;;;;3.50;2.30;;;;;;;18.98;44.47;101298.88;5053523;28;20057;-44
2023/04/11 04:48:43;;;;;;;4.13;2.35;;;;;;;18.98;44.57;101298.03;5037563;28;20048;-46
2023/04/11 04:51:11;;;;;;;3.50;1.90;;;;;;;18.98;44.41;101295.34;5032583;28;20053;-48
2023/04/11 04:53:40;;;;;;;4.15;2.42;;;;;;;18.98;44.41;101306.06;5031586;28;20049;-44
2023/04/11 04:56:10;;;;;;;3.30;2.13;;;;;;;18.96;44.36;101287.44;5032795;28;20057;-47
2023/04/11 04:58:40;;;;;;;3.80;2.10;;;;;;;18.98;44.44;101290.84;5032480;28;20053;-49
2023/04/11 05:01:11;;;;;;;3.30;2.13;;;;;;;18.97;44.42;101301.69;5032509;28;20052;-49
2023/04/11 05:03:39;;;;;;;3.92;2.28;;;;;;;18.97;44.29;101304.38;5033820;28;20375;-47
2023/04/11 05:06:12;;;;;;;3.55;2.28;;;;;;;18.96;44.33;101311.56;5032111;28;20065;-44
2023/04/11 05:08:43;;;;;;;5.15;2.17;;;;;;;18.97;44.37;101317.78;5032000;28;20072;-45
2023/04/11 05:11:11;;;;;;;3.05;1.95;;;;;;;18.97;44.42;101315.09;5032594;28;20064;-45
2023/04/11 05:13:38;;;;;;;3.78;2.17;;;;;;;18.96;44.32;101314.25;5031849;28;20054;-46
2023/04/11 05:16:06;;;;;;;3.83;2.38;;;;;;;18.96;44.51;101316.09;5032048;28;20388;-45
2023/04/11 05:18:34;;;;;;;5.20;2.20;;;;;;;18.96;44.36;101321.47;5032265;28;20052;-45
2023/04/11 05:21:03;;;;;;;3.25;2.08;;;;;;;18.95;44.26;101317.88;5033092;28;20046;-46
2023/04/11 05:23:36;;;;;;;3.55;1.95;;;;;;;18.95;44.23;101327.78;5032232;28;20472;-44
2023/04/11 05:26:06;;;;;;;3.58;2.25;;;;;;;18.95;44.16;101331.31;5035323;28;20052;-47
2023/04/11 05:28:37;;;;;;;3.33;1.90;;;;;;;18.95;44.34;101319.72;5052314;28;20514;-47
2023/04/11 05:31:10;;;;;;;3.63;2.17;;;;;;;18.94;44.46;101316.19;5051754;28;20049;-47
2023/04/11 05:33:40;;;;;;;4.18;2.25;;;;;;;18.95;44.19;101320.56;5051983;28;20486;-49
2023/04/11 05:36:12;;;;;;;3.38;2.00;;;;;;;18.93;44.26;101325.22;5051984;28;20049;-47
2023/04/11 05:38:41;;;;;;;4.18;2.58;;;;;;;18.95;44.28;101327.78;5051844;28;20523;-47
2023/04/11 05:41:10;;;;;;;4.88;2.00;;;;;;;18.94;44.33;101313.50;5052785;28;20041;-48
2023/04/11 05:43:37;;;;;;;5.07;2.20;;;;;;;18.93;44.37;101313.63;5053089;28;20053;-49
2023/04/11 05:46:06;;;;;;;3.70;2.08;;;;;;;18.94;44.30;101312.66;5053111;28;20056;-47
2023/04/11 05:48:34;;;;;;;3.85;2.10;;;;;;;18.94;44.18;101312.66;5047836;28;20054;-48
2023/04/11 05:51:02;;;;;;;3.22;2.10;;;;;;;18.94;44.23;101309.97;5031952;28;20037;-48
2023/04/11 05:53:30;;;;;;;4.32;1.98;;;;;;;18.93;44.31;101308.28;5031484;28;20395;-51
2023/04/11 05:55:58;;;;;;;3.58;1.98;;;;;;;18.94;44.37;101299.25;5031698;28;20060;-50
2023/04/11 05:58:25;;;;;;;4.20;2.53;;;;;;;18.94;44.46;101296.56;5033113;28;20508;-47
2023/04/11 06:00:53;;;;;;;3.20;2.28;;;;;;;18.93;44.34;101292.16;5032664;28;20151;-48
2023/04/11 06:03:20;;;;;;;2.67;1.77;;;;;;;18.93;44.42;101284.13;5033520;28;20069;-48
2023/04/11 06:05:48;;;;;;;3.25;2.20;;;;;;;18.92;44.35;101277.91;5036413;28;20121;-45
2023/04/11 06:08:16;;;;;;;4.53;2.08;;;;;;;18.93;44.57;101276.06;5036562;28;20045;-47
2023/04/11 06:10:43;;;;;;;3.97;2.45;;;;;;;18.93;44.41;101276.94;5036801;28;20049;-48
2023/04/11 06:13:11;;;;;;;4.63;2.38;;;;;;;18.93;44.52;101270.72;5039651;28;20049;-48
2023/04/11 06:15:38;;;;;;;3.22;2.22;;;;;;;18.92;44.48;101251.06;5056528;28;20053;-48
2023/04/11 06:18:05;;;;;;;4.38;2.05;;;;;;;18.93;44.72;101255.47;5056379;28;20049;-48
2023/04/11 06:20:33;;;;;;;2.85;2.00;;;;;;;18.93;44.70;101255.47;5056704;28;20045;-50
2023/04/11 06:23:00;;;;;;;3.38;2.10;;;;;;;18.93;44.68;101246.56;5056382;28;20045;-48
2023/04/11 06:25:27;;;;;;;4.95;2.33;;;;;;;18.93;44.75;101246.56;5056165;28;20397;-50
2023/04/11 06:27:55;;;;;;;3.35;2.13;;;;;;;18.94;44.87;101248.25;5056734;28;20041;-47
2023/04/11 06:30:22;;;;;;;5.07;2.45;;;;;;;18.94;44.69;101242.91;5056225;28;20037;-46
2023/04/11 06:32:49;;;;;;;3.03;1.92;;;;;;;18.94;44.82;101245.59;5056240;28;20052;-48
2023/04/11 06:35:19;;;;;;;7.50;2.35;;;;;;;18.94;44.87;101245.59;5056651;28;20060;-48
2023/04/11 06:37:46;;;;;;;5.47;2.13;;;;;;;18.95;44.94;101236.56;5056031;28;20056;-46
2023/04/11 06:40:15;;;;;;;3.17;2.28;;;;;;;18.94;44.89;101233.00;5056001;28;20049;-47
2023/04/11 06:42:43;;;;;;;3.67;1.95;;;;;;;18.94;44.75;101242.91;5056354;28;20045;-45
2023/04/11 06:45:10;;;;;;;4.15;2.20;;;;;;;18.94;44.84;101248.25;5055859;28;20048;-48
2023/04/11 06:47:38;;;;;;;3.25;2.30;;;;;;;18.96;45.04;101251.69;5055764;28;20055;-51
2023/04/11 06:50:06;;;;;;;4.63;2.00;;;;;;;18.96;44.92;101247.19;5055329;28;20086;-51
2023/04/11 06:52:34;;;;;;;3.78;2.35;;;;;;;18.96;45.05;101232.91;5055377;28;20053;-47
2023/04/11 06:55:01;;;;;;;4.38;2.30;;;;;;;18.97;44.71;101231.94;5055844;28;20049;-49
2023/04/11 06:57:28;;;;;;;3.35;2.25;;;;;;;18.96;44.80;101217.66;5056165;28;20052;-48
2023/04/11 06:59:55;;;;;;;3.72;2.53;;;;;;;18.96;44.55;101217.66;5056160;28;20049;-48
2023/04/11 07:02:24;;;;;;;4.07;2.42;;;;;;;18.97;44.42;101221.19;5056209;28;20072;-50
2023/04/11 07:04:52;;;;;;;5.32;2.10;;;;;;;18.96;44.61;101219.50;5056047;28;20049;-49
2023/04/11 07:07:19;;;;;;;4.28;2.00;;;;;;;18.96;44.84;101214.13;5055465;28;20053;-51
2023/04/11 07:09:47;;;;;;;3.65;2.20;;;;;;;18.97;44.72;101222.06;5055678;28;20479;-48
2023/04/11 07:12:14;;;;;;;4.72;2.30;;;;;;;18.98;44.80;101217.53;5054682;28;20041;-50
2023/04/11 07:14:41;;;;;;;4.90;2.10;;;;;;;18.99;44.88;101213.88;5057084;28;20041;-46
2023/04/11 07:17:09;;;;;;;5.85;2.50;;;;;;;18.99;44.74;101216.56;5053548;28;20057;-44
2023/04/11 07:19:36;;;;;;;3.65;2.00;;;;;;;19.00;44.61;101218.28;5055192;28;20526;-46
2023/04/11 07:22:03;;;;;;;6.75;2.00;;;;;;;19.00;44.50;101216.44;5054959;28;20041;-45
2023/04/11 07:24:31;;;;;;;7.53;2.65;;;;;;;19.01;44.70;101210.09;5055340;28;20053;-46
2023/04/11 07:27:00;;;;;;;3.80;2.17;;;;;;;19.03;44.96;101212.66;5055631;28;20064;-50
2023/04/11 07:29:27;;;;;;;6.05;2.20;;;;;;;19.02;44.90;101202.91;5055414;28;20056;-50
2023/04/11 07:31:55;;;;;;;5.18;2.20;;;;;;;19.06;44.46;101198.16;5053559;28;20060;-48
2023/04/11 07:34:22;;;;;;;4.90;2.03;;;;;;;19.07;44.87;101191.81;5055074;28;20049;-52
2023/04/11 07:36:50;;;;;;;4.43;2.88;;;;;;;19.08;44.55;101194.38;5055257;28;20045;-45
2023/04/11 07:39:17;;;;;;;4.72;2.25;;;;;;;19.08;44.75;101191.69;5054911;28;20041;-46
2023/04/11 07:41:44;;;;;;;4.38;2.10;;;;;;;19.08;44.90;101197.06;5054338;28;20052;-46
2023/04/11 07:44:12;;;;;;;4.50;2.65;;;;;;;19.10;44.87;101184.38;5054527;28;20060;-44
2023/04/11 07:46:39;;;;;;;3.83;2.10;;;;;;;19.10;45.05;101187.06;5054821;28;20049;-46
2023/04/11 07:49:06;;;;;;;6.25;2.50;;;;;;;19.11;44.85;101188.75;5040324;28;20408;-44
2023/04/11 07:51:34;;;;;;;3.67;2.42;;;;;;;19.10;44.65;101187.06;5034444;28;20049;-44
2023/04/11 07:54:02;;;;;;;3.60;2.10;;;;;;;19.11;44.65;101178.03;5034529;28;20049;-47
2023/04/11 07:56:29;;;;;;;4.10;2.50;;;;;;;19.11;44.47;101179.84;5034801;28;20400;-45
2023/04/11 07:58:57;;;;;;;3.25;1.92;;;;;;;19.12;44.60;101187.81;5034701;28;20048;-46
2023/04/11 08:01:25;;;;;;;4.50;2.05;;;;;;;19.11;44.58;101180.69;5034338;28;20042;-45
2023/04/11 08:03:54;;;;;;;4.82;2.65;;;;;;;19.11;44.44;101172.66;5034409;28;20411;-46
2023/04/11 08:06:22;;;;;;;3.25;2.20;;;;;;;19.12;44.32;101165.44;5034869;28;20058;-48
2023/04/11 08:08:50;;;;;;;3.25;2.05;;;;;;;19.11;44.15;101164.59;5034769;28;20049;-47
2023/04/11 08:11:17;;;;;;;3.80;2.47;;;;;;;19.12;44.62;101166.34;5034361;28;20056;-47
2023/04/11 08:13:44;;;;;;;4.05;2.20;;;;;;;19.13;44.55;101164.50;5034549;28;20507;-48
2023/04/11 08:16:13;;;;;;;5.68;2.20;;;;;;;19.13;44.55;101162.66;5034295;28;20060;-45
2023/04/11 08:18:41;;;;;;;3.70;1.95;;;;;;;19.13;44.29;101157.28;5034390;28;20400;-45
2023/04/11 08:21:12;;;;;;;4.38;2.22;;;;;;;19.12;43.89;101147.53;5034414;28;20048;-46
2023/04/11 08:23:40;;;;;;;4.80;2.08;;;;;;;19.13;43.94;101151.94;5034504;28;20511;-47
2023/04/11 08:26:10;;;;;;;4.60;2.00;;;;;;;19.13;43.95;101159.97;5033007;28;20064;-47
2023/04/11 08:28:38;;;;;;;3.15;1.85;;;;;;;19.12;43.71;101152.91;5033474;28;20049;-48
2023/04/11 08:31:09;;;;;;;5.07;1.80;;;;;;;19.13;43.88;101156.44;5034194;28;20041;-45
2023/04/11 08:33:38;;;;;;;3.05;1.90;;;;;;;19.13;43.46;101141.19;5033870;28;20048;-45
2023/04/11 08:36:08;;;;;;;5.68;2.08;;;;;;;19.14;43.51;101128.63;5033962;28;20045;-45
2023/04/11 08:38:37;;;;;;;3.25;1.58;;;;;;;19.14;43.51;101132.16;5033971;28;20048;-46
2023/04/11 08:41:05;;;;;;;4.68;2.00;;;;;;;19.15;43.61;101127.63;5033832;28;20041;-47
2023/04/11 08:43:33;;;;;;;3.90;1.80;;;;;;;19.15;43.79;101133.84;5033866;28;20053;-46
2023/04/11 08:46:04;;;;;;;4.85;2.35;;;;;;;19.15;43.95;101149.97;5033720;28;20064;-46
2023/04/11 08:48:31;;;;;;;3.63;2.10;;;;;;;19.16;43.71;101150.81;5033835;28;20053;-47
2023/04/11 08:50:59;;;;;;;3.95;1.90;;;;;;;19.15;43.82;101158.00;5033876;28;20072;-47
2023/04/11 08:53:28;;;;;;;5.72;1.77;;;;;;;19.16;43.92;101153.50;5033548;28;20052;-47
2023/04/11 08:55:55;;;;;;;3.83;1.88;;;;;;;19.16;43.86;101161.53;5033506;28;20507;-46
2023/04/11 08:58:22;;;;;;;3.53;1.55;;;;;;;19.17;43.82;101149.84;5033685;28;20049;-48
2023/04/11 09:00:49;;;;;;;3.80;1.80;;;;;;;19.17;44.09;101142.66;5033772;28;20065;-45
2023/04/11 09:03:17;;;;;;;4.35;1.98;;;;;;;19.18;44.24;101148.88;5033667;28;20046;-47
2023/04/11 09:05:48;;;;;;;4.30;1.45;;;;;;;19.19;44.14;101146.06;5033788;28;20411;-48
2023/04/11 09:08:18;;;;;;;2.75;1.70;;;;;;;19.20;43.67;101137.06;5033694;28;20049;-48
2023/04/11 09:10:45;;;;;;;4.63;2.15;;;;;;;19.20;43.42;101138.84;5033706;28;20045;-49
2023/04/11 09:13:22;;;;;;;4.68;1.60;;;;;;;19.20;43.72;101142.41;5033427;28;20048;-49
2023/04/11 09:16:03;;;;;;;4.05;1.70;;;;;;;19.19;43.79;101129.94;5033501;28;20369;-45
2023/04/11 09:18:35;;;;;;;4.85;1.90;;;;;;;19.19;43.64;101132.63;5033296;28;20045;-45
2023/04/11 09:21:08;;;;;;;6.38;2.08;;;;;;;19.19;43.72;101121.03;5033273;28;20050;-45
2023/04/11 09:23:36;;;;;;;4.63;2.00;;;;;;;19.19;43.72;101121.91;5033296;28;20518;-46
2023/04/11 09:26:06;;;;;;;4.25;1.92;;;;;;;19.19;44.03;101113.00;5033217;28;20056;-49
2023/04/11 09:28:43;;;;;;;6.85;2.05;;;;;;;19.20;43.82;101110.22;5033466;28;20049;-49
2023/04/11 09:31:12;;;;;;;5.70;1.65;;;;;;;19.20;43.90;101093.22;5033196;28;20072;-50
2023/04/11 09:33:54;;;;;;;4.35;2.05;;;;;;;19.19;43.92;101076.28;5033274;28;20045;-50
2023/04/11 09:36:23;;;;;;;2.92;1.92;;;;;;;19.20;43.98;101078.00;5033376;28;20046;-47
2023/04/11 09:38:51;;;;;;;3.08;1.58;;;;;;;19.20;43.93;101079.81;5034038;28;20049;-47
2023/04/11 09:41:33;;;;;;;3.38;1.95;;;;;;;19.19;44.08;101080.78;5039881;28;20056;-49
2023/04/11 09:44:01;;;;;;;3.72;2.08;;;;;;;19.22;43.75;101075.19;5039748;28;20060;-45
2023/04/11 09:46:28;;;;;;;3.80;2.05;;;;;;;19.21;43.23;101068.97;5039449;28;20045;-48
2023/04/11 09:48:56;;;;;;;5.95;2.30;;;;;;;19.21;42.88;101063.59;5039553;28;20045;-48
2023/04/11 09:51:23;;;;;;;4.38;2.17;;;;;;;19.23;43.51;101076.88;5037970;28;20049;-49
2023/04/11 09:54:03;;;;;;;4.82;1.92;;;;;;;19.24;43.73;101076.78;5039638;28;20053;-49
2023/04/11 09:56:35;;;;;;;4.03;2.03;;;;;;;19.24;44.07;101070.53;5039688;28;20404;-49
2023/04/11 09:59:03;;;;;;;3.15;1.77;;;;;;;19.24;43.99;101068.72;5039538;28;20049;-48
2023/04/11 10:01:31;;;;;;;3.92;2.13;;;;;;;19.24;43.80;101062.47;5039305;28;20492;-49
2023/04/11 10:03:59;;;;;;;4.47;1.98;;;;;;;19.23;43.97;101064.31;5039560;28;20076;-49
2023/04/11 10:06:41;;;;;;;3.70;2.15;;;;;;;19.24;44.00;101054.41;5039661;28;20049;-48
2023/04/11 10:09:11;;;;;;;3.63;1.90;;;;;;;19.23;43.68;101048.19;5039588;28;20050;-50
2023/04/11 10:11:42;;;;;;;3.83;1.67;;;;;;;19.23;43.60;101061.63;5039369;28;20376;-49
2023/04/11 10:14:43;;;;;;;5.72;2.50;;;;;;;19.23;43.81;101061.63;5039399;28;20075;-51
2023/04/11 10:17:19;;;;;;;3.95;1.80;;;;;;;19.24;44.04;101047.25;5048521;28;20057;-48
2023/04/11 10:19:56;;;;;;;3.30;2.10;;;;;;;19.23;43.71;101045.53;5039296;28;20041;-49
2023/04/11 10:22:47;;;;;;;3.28;1.88;;;;;;;19.24;43.84;101041.88;5039457;28;20041;-47
2023/04/11 10:25:23;;;;;;;2.97;1.58;;;;;;;19.24;44.09;101036.50;5039155;28;20060;-49
2023/04/11 10:27:52;;;;;;;2.83;1.70;;;;;;;19.24;44.05;101031.13;5039327;28;20049;-48
2023/04/11 10:30:40;;;;;;;2.80;1.90;;;;;;;19.24;43.75;101027.56;5039320;28;20051;-48
2023/04/11 10:33:12;;;;;;;4.90;2.08;;;;;;;19.24;43.94;101028.47;5041660;28;20062;-48
2023/04/11 10:36:01;;;;;;;;;;;;;;;19.25;43.86;101021.25;5039986;28;20053;-48
2023/04/11 10:38:47;;;;;;;8.48;2.85;;;;;;;19.25;43.94;101014.06;5045136;28;19921;-48
2023/04/11 10:41:30;;;;;;;3.05;1.70;;;;;;;19.26;43.79;101006.84;5039256;28;20045;-49
2023/04/11 10:44:19;;;;;;;3.53;1.60;;;;;;;19.26;44.03;100999.66;5039361;28;20049;-47
2023/04/11 10:46:54;;;;;;;4.65;2.13;;;;;;;19.26;43.87;100988.06;5044057;28;20044;-49
2023/04/11 10:49:31;;;;;;;3.20;1.83;;;;;;;19.25;43.78;100984.53;5059423;28;20052;-48
2023/04/11 10:52:20;;;;;;;3.10;2.05;;;;;;;19.25;43.68;100989.91;5055786;28;20048;-49
2023/04/11 10:54:50;;;;;;;3.90;2.13;;;;;;;19.25;43.72;100989.91;5056198;28;20045;-50
2023/04/11 10:57:18;;;;;;;2.67;1.70;;;;;;;19.26;43.89;100991.59;5056026;28;20391;-48
2023/04/11 10:59:51;;;;;;;2.65;1.63;;;;;;;19.25;43.66;100989.91;5056008;28;20049;-48
2023/04/11 11:02:20;;;;;;;4.57;1.80;;;;;;;19.26;43.96;100991.59;5055881;28;20489;-50
2023/04/11 11:04:49;;;;;;;3.78;1.73;;;;;;;19.26;43.87;100980.84;5055942;28;20049;-48
2023/04/11 11:07:17;;;;;;;3.92;1.70;;;;;;;19.27;44.09;100982.56;5054844;28;20045;-48
2023/04/11 11:09:49;;;;;;;2.75;1.90;;;;;;;19.28;44.02;100983.41;5055627;28;20395;-47
2023/04/11 11:12:17;;;;;;;3.00;1.67;;;;;;;19.28;43.92;100983.41;5055712;28;20049;-48
2023/04/11 11:14:45;;;;;;;4.03;1.75;;;;;;;19.29;44.02;100989.66;5055501;28;20471;-47
2023/04/11 11:17:14;;;;;;;3.40;1.73;;;;;;;19.29;43.93;100990.50;5055187;28;20052;-48
2023/04/11 11:19:46;;;;;;;3.55;1.70;;;;;;;19.29;43.70;100984.28;5054923;28;20040;-49
2023/04/11 11:22:24;;;;;;;2.80;1.47;;;;;;;19.28;43.54;100980.72;5055158;28;20375;-48
2023/04/11 11:24:52;;;;;;;2.85;1.92;;;;;;;19.29;43.69;100978.91;5054919;28;20079;-49
2023/04/11 11:27:21;;;;;;;3.05;1.60;;;;;;;19.29;44.07;100973.53;5055095;28;20502;-47
2023/04/11 11:29:50;;;;;;;2.92;1.52;;;;;;;19.28;44.06;100967.28;5054846;28;20052;-47
2023/04/11 11:32:27;;;;;;;5.38;1.90;;;;;;;19.30;44.07;100967.19;5054662;28;20049;-50
2023/04/11 11:34:56;;;;;;;3.88;1.90;;;;;;;19.29;43.92;100960.13;5054907;28;20044;-45
2023/04/11 11:37:44;;;;;;;4.95;1.70;;;;;;;19.30;43.81;100956.44;5054777;28;20052;-47
2023/04/11 11:40:12;;;;;;;2.58;1.50;;;;;;;19.29;43.86;100949.38;5055001;28;20057;-47